createdAt,value
2022-12-04T00:00:09.816Z,95720.00
2022-12-04T00:00:17.876Z,95722.00
2022-12-04T00:00:29.804Z,95720.00
2022-12-04T00:00:37.865Z,95722.00
2022-12-04T00:00:47.869Z,95718.00
2022-12-04T00:00:58.057Z,95718.00
2022-12-04T00:01:08.037Z,95718.00
2022-12-04T00:01:19.815Z,95714.00
2022-12-04T00:01:27.866Z,95714.00
2022-12-04T00:01:37.877Z,95718.00
2022-12-04T00:01:47.866Z,95716.00
2022-12-04T00:01:57.926Z,95714.00
2022-12-04T00:02:07.867Z,95714.00
2022-12-04T00:02:17.865Z,95712.00
2022-12-04T00:02:27.949Z,95716.00
2022-12-04T00:02:38.098Z,95716.00
2022-12-04T00:02:47.890Z,95712.00
2022-12-04T00:02:57.907Z,95712.00
2022-12-04T00:03:07.916Z,95716.00
2022-12-04T00:03:19.335Z,95714.00
2022-12-04T00:03:27.921Z,95712.00
2022-12-04T00:03:37.859Z,95714.00
2022-12-04T00:03:47.862Z,95714.00
2022-12-04T00:03:59.411Z,95714.00
2022-12-04T00:04:07.858Z,95714.00
2022-12-04T00:04:17.925Z,95716.00
2022-12-04T00:04:27.926Z,95714.00
2022-12-04T00:04:37.897Z,95714.00
2022-12-04T00:04:47.872Z,95714.00
2022-12-04T00:04:57.929Z,95714.00
2022-12-04T00:05:07.877Z,95712.00
2022-12-04T00:05:19.798Z,95710.00
2022-12-04T00:05:27.848Z,95710.00
2022-12-04T00:05:37.848Z,95710.00
2022-12-04T00:05:47.847Z,95710.00
2022-12-04T00:05:57.848Z,95708.00
2022-12-04T00:06:07.859Z,95708.00
2022-12-04T00:06:17.851Z,95708.00
2022-12-04T00:06:27.858Z,95706.00
2022-12-04T00:06:37.879Z,95706.00
2022-12-04T00:06:47.848Z,95708.00
2022-12-04T00:06:59.024Z,95706.00
2022-12-04T00:07:07.848Z,95706.00
2022-12-04T00:07:17.849Z,95708.00
2022-12-04T00:07:27.873Z,95708.00
2022-12-04T00:07:37.881Z,95706.00
2022-12-04T00:07:47.947Z,95710.00
2022-12-04T00:07:57.885Z,95708.00
2022-12-04T00:08:07.903Z,95708.00
2022-12-04T00:08:17.946Z,95710.00
2022-12-04T00:08:27.847Z,95712.00
2022-12-04T00:08:37.841Z,95714.00
2022-12-04T00:08:47.846Z,95714.00
2022-12-04T00:08:57.842Z,95714.00
2022-12-04T00:09:07.868Z,95714.00
2022-12-04T00:09:17.840Z,95716.00
2022-12-04T00:09:27.846Z,95716.00
2022-12-04T00:09:37.860Z,95718.00
2022-12-04T00:09:47.829Z,95716.00
2022-12-04T00:09:57.832Z,95714.00
2022-12-04T00:10:07.830Z,95714.00
2022-12-04T00:10:17.840Z,95714.00
2022-12-04T00:10:27.908Z,95714.00
2022-12-04T00:10:37.950Z,95712.00
2022-12-04T00:10:47.840Z,95714.00
2022-12-04T00:10:57.838Z,95714.00
2022-12-04T00:11:08.101Z,95712.00
2022-12-04T00:11:17.839Z,95714.00
2022-12-04T00:11:27.828Z,95712.00
2022-12-04T00:11:37.829Z,95712.00
2022-12-04T00:11:47.829Z,95710.00
2022-12-04T00:11:57.831Z,95712.00
2022-12-04T00:12:07.831Z,95710.00
2022-12-04T00:12:17.820Z,95710.00
2022-12-04T00:12:27.828Z,95710.00
2022-12-04T00:12:37.830Z,95710.00
2022-12-04T00:12:47.830Z,95710.00
2022-12-04T00:12:57.836Z,95710.00
2022-12-04T00:13:07.819Z,95710.00
2022-12-04T00:13:17.818Z,95710.00
2022-12-04T00:13:27.820Z,95710.00
2022-12-04T00:13:37.831Z,95710.00
2022-12-04T00:13:47.823Z,95712.00
2022-12-04T00:14:02.951Z,95710.00
2022-12-04T00:14:07.828Z,95710.00
2022-12-04T00:14:17.833Z,95710.00
2022-12-04T00:14:27.824Z,95710.00
2022-12-04T00:15:00.849Z,95710.00
2022-12-04T00:15:23.389Z,95708.00
2022-12-04T00:15:24.758Z,95708.00
2022-12-04T00:15:26.205Z,95710.00
2022-12-04T00:15:27.821Z,95712.00
2022-12-04T00:15:37.812Z,95710.00
2022-12-04T00:15:47.813Z,95706.00
2022-12-04T00:15:57.859Z,95712.00
2022-12-04T00:16:07.906Z,95708.00
2022-12-04T00:16:17.876Z,95710.00
2022-12-04T00:16:27.886Z,95708.00
2022-12-04T00:16:37.898Z,95710.00
2022-12-04T00:16:47.847Z,95712.00
2022-12-04T00:16:57.812Z,95708.00
2022-12-04T00:17:07.815Z,95714.00
2022-12-04T00:17:17.812Z,95710.00
2022-12-04T00:17:27.813Z,95714.00
2022-12-04T00:17:37.801Z,95712.00
2022-12-04T00:17:47.813Z,95712.00
2022-12-04T00:17:57.801Z,95712.00
2022-12-04T00:18:07.803Z,95714.00
2022-12-04T00:18:17.811Z,95714.00
2022-12-04T00:18:27.803Z,95712.00
2022-12-04T00:18:37.814Z,95714.00
2022-12-04T00:18:47.812Z,95712.00
2022-12-04T00:18:57.803Z,95716.00
2022-12-04T00:19:07.802Z,95716.00
2022-12-04T00:19:17.800Z,95714.00
2022-12-04T00:19:27.832Z,95716.00
2022-12-04T00:19:37.801Z,95714.00
2022-12-04T00:19:47.832Z,95716.00
2022-12-04T00:19:57.804Z,95714.00
2022-12-04T00:20:07.794Z,95712.00
2022-12-04T00:20:17.806Z,95714.00
2022-12-04T00:20:27.803Z,95712.00
2022-12-04T00:20:37.993Z,95716.00
2022-12-04T00:20:47.816Z,95714.00
2022-12-04T00:20:57.792Z,95714.00
2022-12-04T00:21:07.792Z,95714.00
2022-12-04T00:21:19.732Z,95714.00
2022-12-04T00:21:27.793Z,95714.00
2022-12-04T00:21:37.791Z,95716.00
2022-12-04T00:21:47.794Z,95716.00
2022-12-04T00:21:57.793Z,95716.00
2022-12-04T00:22:07.784Z,95712.00
2022-12-04T00:22:17.790Z,95716.00
2022-12-04T00:22:27.992Z,95714.00
2022-12-04T00:22:37.790Z,95716.00
2022-12-04T00:22:47.783Z,95718.00
2022-12-04T00:22:57.783Z,95716.00
2022-12-04T00:23:07.782Z,95714.00
2022-12-04T00:23:17.953Z,95716.00
2022-12-04T00:23:27.782Z,95716.00
2022-12-04T00:23:37.793Z,95714.00
2022-12-04T00:23:47.871Z,95714.00
2022-12-04T00:23:57.886Z,95714.00
2022-12-04T00:24:07.776Z,95716.00
2022-12-04T00:24:17.802Z,95712.00
2022-12-04T00:24:27.834Z,95712.00
2022-12-04T00:24:37.808Z,95714.00
2022-12-04T00:24:47.784Z,95710.00
2022-12-04T00:24:57.795Z,95712.00
2022-12-04T00:25:07.774Z,95710.00
2022-12-04T00:25:17.781Z,95712.00
2022-12-04T00:25:27.773Z,95714.00
2022-12-04T00:25:41.101Z,95714.00
2022-12-04T00:25:47.775Z,95712.00
2022-12-04T00:25:57.776Z,95712.00
2022-12-04T00:26:07.764Z,95712.00
2022-12-04T00:26:17.782Z,95712.00
2022-12-04T00:26:27.775Z,95712.00
2022-12-04T00:26:37.764Z,95710.00
2022-12-04T00:26:47.775Z,95710.00
2022-12-04T00:26:57.765Z,95710.00
2022-12-04T00:27:07.764Z,95710.00
2022-12-04T00:27:17.763Z,95710.00
2022-12-04T00:27:27.764Z,95708.00
2022-12-04T00:27:37.763Z,95710.00
2022-12-04T00:27:47.764Z,95706.00
2022-12-04T00:27:57.764Z,95708.00
2022-12-04T00:28:07.764Z,95708.00
2022-12-04T00:28:17.772Z,95710.00
2022-12-04T00:28:27.764Z,95710.00
2022-12-04T00:28:37.764Z,95712.00
2022-12-04T00:28:47.755Z,95710.00
2022-12-04T00:28:57.754Z,95712.00
2022-12-04T00:29:07.764Z,95710.00
2022-12-04T00:29:17.766Z,95708.00
2022-12-04T00:29:27.763Z,95712.00
2022-12-04T00:29:37.765Z,95712.00
2022-12-04T00:29:47.775Z,95712.00
2022-12-04T00:29:57.786Z,95712.00
2022-12-04T00:30:07.755Z,95712.00
2022-12-04T00:30:17.781Z,95714.00
2022-12-04T00:30:27.764Z,95716.00
2022-12-04T00:30:37.754Z,95714.00
2022-12-04T00:30:47.755Z,95716.00
2022-12-04T00:30:57.755Z,95714.00
2022-12-04T00:31:07.836Z,95712.00
2022-12-04T00:31:17.781Z,95714.00
2022-12-04T00:31:27.827Z,95712.00
2022-12-04T00:31:37.770Z,95718.00
2022-12-04T00:31:47.819Z,95716.00
2022-12-04T00:31:57.816Z,95722.00
2022-12-04T00:32:07.850Z,95720.00
2022-12-04T00:32:17.746Z,95722.00
2022-12-04T00:32:28.196Z,95722.00
2022-12-04T00:32:37.748Z,95720.00
2022-12-04T00:32:47.758Z,95720.00
2022-12-04T00:32:57.748Z,95722.00
2022-12-04T00:33:07.746Z,95720.00
2022-12-04T00:33:17.753Z,95720.00
2022-12-04T00:33:27.746Z,95722.00
2022-12-04T00:33:37.747Z,95724.00
2022-12-04T00:33:47.751Z,95720.00
2022-12-04T00:33:58.514Z,95722.00
2022-12-04T00:34:08.378Z,95724.00
2022-12-04T00:34:17.736Z,95724.00
2022-12-04T00:34:27.748Z,95724.00
2022-12-04T00:34:37.736Z,95722.00
2022-12-04T00:34:47.736Z,95724.00
2022-12-04T00:34:57.848Z,95726.00
2022-12-04T00:35:07.759Z,95726.00
2022-12-04T00:35:17.747Z,95728.00
2022-12-04T00:35:27.735Z,95728.00
2022-12-04T00:35:37.739Z,95730.00
2022-12-04T00:35:47.736Z,95730.00
2022-12-04T00:35:57.727Z,95732.00
2022-12-04T00:36:07.741Z,95734.00
2022-12-04T00:36:17.739Z,95734.00
2022-12-04T00:36:27.730Z,95734.00
2022-12-04T00:36:37.739Z,95736.00
2022-12-04T00:36:49.676Z,95734.00
2022-12-04T00:36:57.727Z,95734.00
2022-12-04T00:37:07.729Z,95736.00
2022-12-04T00:37:17.726Z,95734.00
2022-12-04T00:37:27.795Z,95730.00
2022-12-04T00:37:37.736Z,95734.00
2022-12-04T00:37:47.727Z,95732.00
2022-12-04T00:37:57.757Z,95732.00
2022-12-04T00:38:07.727Z,95732.00
2022-12-04T00:38:17.741Z,95732.00
2022-12-04T00:38:27.837Z,95732.00
2022-12-04T00:38:37.797Z,95728.00
2022-12-04T00:38:47.727Z,95732.00
2022-12-04T00:38:57.748Z,95730.00
2022-12-04T00:39:07.718Z,95730.00
2022-12-04T00:39:17.727Z,95728.00
2022-12-04T00:39:27.728Z,95730.00
2022-12-04T00:39:37.728Z,95726.00
2022-12-04T00:39:47.720Z,95726.00
2022-12-04T00:39:57.870Z,95726.00
2022-12-04T00:40:07.739Z,95724.00
2022-12-04T00:40:19.187Z,95724.00
2022-12-04T00:40:27.718Z,95724.00
2022-12-04T00:40:37.738Z,95724.00
2022-12-04T00:40:47.759Z,95724.00
2022-12-04T00:40:57.719Z,95722.00
2022-12-04T00:41:07.718Z,95724.00
2022-12-04T00:41:17.720Z,95724.00
2022-12-04T00:41:27.708Z,95726.00
2022-12-04T00:41:37.721Z,95726.00
2022-12-04T00:41:47.708Z,95724.00
2022-12-04T00:41:57.709Z,95722.00
2022-12-04T00:42:09.660Z,95724.00
2022-12-04T00:42:17.709Z,95726.00
2022-12-04T00:42:27.708Z,95726.00
2022-12-04T00:42:37.713Z,95726.00
2022-12-04T00:42:47.711Z,95726.00
2022-12-04T00:42:57.708Z,95726.00
2022-12-04T00:43:07.709Z,95728.00
2022-12-04T00:43:17.714Z,95726.00
2022-12-04T00:43:27.699Z,95728.00
2022-12-04T00:43:39.647Z,95730.00
2022-12-04T00:43:47.698Z,95730.00
2022-12-04T00:43:59.652Z,95730.00
2022-12-04T00:44:07.710Z,95728.00
2022-12-04T00:44:17.712Z,95730.00
2022-12-04T00:44:27.709Z,95728.00
2022-12-04T00:44:37.698Z,95726.00
2022-12-04T00:44:47.711Z,95728.00
2022-12-04T00:44:57.708Z,95728.00
2022-12-04T00:45:07.703Z,95728.00
2022-12-04T00:45:17.730Z,95728.00
2022-12-04T00:45:27.765Z,95728.00
2022-12-04T00:45:37.757Z,95728.00
2022-12-04T00:45:47.761Z,95728.00
2022-12-04T00:45:57.737Z,95726.00
2022-12-04T00:46:07.779Z,95726.00
2022-12-04T00:46:17.817Z,95726.00
2022-12-04T00:46:28.051Z,95724.00
2022-12-04T00:46:39.640Z,95722.00
2022-12-04T00:46:47.691Z,95722.00
2022-12-04T00:46:57.690Z,95722.00
2022-12-04T00:47:07.691Z,95720.00
2022-12-04T00:47:17.690Z,95722.00
2022-12-04T00:47:27.690Z,95718.00
2022-12-04T00:47:39.640Z,95716.00
2022-12-04T00:47:47.693Z,95716.00
2022-12-04T00:47:57.691Z,95716.00
2022-12-04T00:48:09.631Z,95716.00
2022-12-04T00:48:17.689Z,95714.00
2022-12-04T00:48:27.688Z,95714.00
2022-12-04T00:48:37.690Z,95716.00
2022-12-04T00:48:47.691Z,95716.00
2022-12-04T00:48:57.681Z,95716.00
2022-12-04T00:49:07.690Z,95714.00
2022-12-04T00:49:17.690Z,95710.00
2022-12-04T00:49:27.691Z,95712.00
2022-12-04T00:49:37.691Z,95712.00
2022-12-04T00:49:47.694Z,95710.00
2022-12-04T00:49:57.928Z,95708.00
2022-12-04T00:50:07.681Z,95710.00
2022-12-04T00:50:17.681Z,95712.00
2022-12-04T00:50:27.701Z,95710.00
2022-12-04T00:50:37.704Z,95708.00
2022-12-04T00:50:47.682Z,95710.00
2022-12-04T00:50:58.072Z,95710.00
2022-12-04T00:51:07.679Z,95710.00
2022-12-04T00:51:17.682Z,95710.00
2022-12-04T00:51:27.682Z,95710.00
2022-12-04T00:51:37.670Z,95712.00
2022-12-04T00:51:47.671Z,95710.00
2022-12-04T00:51:57.671Z,95710.00
2022-12-04T00:52:07.675Z,95714.00
2022-12-04T00:52:17.674Z,95712.00
2022-12-04T00:52:27.674Z,95712.00
2022-12-04T00:52:37.671Z,95714.00
2022-12-04T00:52:47.683Z,95712.00
2022-12-04T00:52:57.672Z,95710.00
2022-12-04T00:53:09.116Z,95712.00
2022-12-04T00:53:17.673Z,95714.00
2022-12-04T00:53:27.672Z,95712.00
2022-12-04T00:53:37.672Z,95712.00
2022-12-04T00:53:47.671Z,95712.00
2022-12-04T00:53:57.672Z,95712.00
2022-12-04T00:54:07.671Z,95716.00
2022-12-04T00:54:17.664Z,95714.00
2022-12-04T00:54:27.674Z,95714.00
2022-12-04T00:54:37.662Z,95718.00
2022-12-04T00:54:47.664Z,95718.00
2022-12-04T00:54:57.661Z,95716.00
2022-12-04T00:55:07.664Z,95716.00
2022-12-04T00:55:17.661Z,95718.00
2022-12-04T00:55:27.674Z,95718.00
2022-12-04T00:55:37.763Z,95720.00
2022-12-04T00:55:47.690Z,95720.00
2022-12-04T00:55:57.663Z,95720.00
2022-12-04T00:56:07.663Z,95720.00
2022-12-04T00:56:18.778Z,95720.00
2022-12-04T00:56:27.662Z,95720.00
2022-12-04T00:56:37.662Z,95722.00
2022-12-04T00:56:47.753Z,95724.00
2022-12-04T00:56:57.664Z,95726.00
2022-12-04T00:57:07.653Z,95724.00
2022-12-04T00:57:17.653Z,95728.00
2022-12-04T00:57:27.665Z,95728.00
2022-12-04T00:57:37.656Z,95728.00
2022-12-04T00:57:47.764Z,95730.00
2022-12-04T00:57:59.983Z,95726.00
2022-12-04T00:58:07.657Z,95730.00
2022-12-04T00:58:17.656Z,95730.00
2022-12-04T00:58:27.643Z,95730.00
2022-12-04T00:58:37.643Z,95730.00
2022-12-04T00:58:47.644Z,95730.00
2022-12-04T00:58:57.645Z,95732.00
2022-12-04T00:59:07.642Z,95734.00
2022-12-04T00:59:17.655Z,95732.00
2022-12-04T00:59:27.653Z,95732.00
2022-12-04T00:59:37.643Z,95732.00
2022-12-04T00:59:47.644Z,95736.00
2022-12-04T00:59:57.788Z,95732.00
2022-12-04T01:00:07.654Z,95732.00
2022-12-04T01:00:17.645Z,95732.00
2022-12-04T01:00:27.862Z,95732.00
2022-12-04T01:00:37.704Z,95734.00
2022-12-04T01:00:47.898Z,95734.00
2022-12-04T01:00:59.191Z,95732.00
2022-12-04T01:01:07.739Z,95736.00
2022-12-04T01:01:17.722Z,95732.00
2022-12-04T01:01:29.160Z,95732.00
2022-12-04T01:01:37.738Z,95734.00
2022-12-04T01:01:47.642Z,95736.00
2022-12-04T01:01:57.646Z,95734.00
2022-12-04T01:02:07.634Z,95732.00
2022-12-04T01:02:17.645Z,95732.00
2022-12-04T01:02:27.634Z,95734.00
2022-12-04T01:02:37.670Z,95730.00
2022-12-04T01:02:47.664Z,95732.00
2022-12-04T01:02:57.740Z,95730.00
2022-12-04T01:03:07.696Z,95730.00
2022-12-04T01:03:17.733Z,95730.00
2022-12-04T01:03:27.746Z,95730.00
2022-12-04T01:03:37.635Z,95728.00
2022-12-04T01:03:47.786Z,95730.00
2022-12-04T01:03:57.795Z,95726.00
2022-12-04T01:04:07.634Z,95730.00
2022-12-04T01:04:17.637Z,95728.00
2022-12-04T01:04:27.635Z,95730.00
2022-12-04T01:04:37.636Z,95730.00
2022-12-04T01:04:47.634Z,95730.00
2022-12-04T01:04:57.634Z,95728.00
2022-12-04T01:05:07.635Z,95730.00
2022-12-04T01:05:17.636Z,95728.00
2022-12-04T01:05:27.634Z,95730.00
2022-12-04T01:05:37.625Z,95728.00
2022-12-04T01:05:47.666Z,95728.00
2022-12-04T01:05:57.678Z,95726.00
2022-12-04T01:06:07.625Z,95728.00
2022-12-04T01:06:17.625Z,95728.00
2022-12-04T01:06:27.628Z,95728.00
2022-12-04T01:06:37.625Z,95726.00
2022-12-04T01:06:47.629Z,95728.00
2022-12-04T01:07:03.218Z,95726.00
2022-12-04T01:07:07.626Z,95726.00
2022-12-04T01:07:17.624Z,95724.00
2022-12-04T01:07:27.635Z,95722.00
2022-12-04T01:07:37.681Z,95720.00
2022-12-04T01:07:47.967Z,95722.00
2022-12-04T01:07:57.729Z,95720.00
2022-12-04T01:08:07.689Z,95718.00
2022-12-04T01:08:17.647Z,95718.00
2022-12-04T01:08:27.618Z,95716.00
2022-12-04T01:08:37.618Z,95716.00
2022-12-04T01:08:47.768Z,95714.00
2022-12-04T01:08:57.617Z,95716.00
2022-12-04T01:09:07.617Z,95712.00
2022-12-04T01:09:17.620Z,95712.00
2022-12-04T01:09:27.623Z,95716.00
2022-12-04T01:09:37.618Z,95718.00
2022-12-04T01:09:47.608Z,95714.00
2022-12-04T01:09:57.903Z,95718.00
2022-12-04T01:10:07.607Z,95718.00
2022-12-04T01:10:17.606Z,95716.00
2022-12-04T01:10:27.606Z,95720.00
2022-12-04T01:10:37.608Z,95720.00
2022-12-04T01:10:47.607Z,95720.00
2022-12-04T01:10:57.624Z,95718.00
2022-12-04T01:11:07.678Z,95722.00
2022-12-04T01:11:17.617Z,95722.00
2022-12-04T01:11:27.608Z,95722.00
2022-12-04T01:11:37.598Z,95724.00
2022-12-04T01:11:47.619Z,95722.00
2022-12-04T01:11:57.598Z,95722.00
2022-12-04T01:12:07.597Z,95722.00
2022-12-04T01:12:20.690Z,95722.00
2022-12-04T01:12:27.597Z,95722.00
2022-12-04T01:12:37.608Z,95722.00
2022-12-04T01:12:47.612Z,95722.00
2022-12-04T01:12:57.608Z,95722.00
2022-12-04T01:13:07.609Z,95722.00
2022-12-04T01:13:17.609Z,95724.00
2022-12-04T01:13:27.606Z,95722.00
2022-12-04T01:13:37.599Z,95718.00
2022-12-04T01:13:47.615Z,95718.00
2022-12-04T01:13:57.607Z,95720.00
2022-12-04T01:14:07.599Z,95720.00
2022-12-04T01:14:17.598Z,95724.00
2022-12-04T01:14:27.587Z,95722.00
2022-12-04T01:14:37.588Z,95722.00
2022-12-04T01:14:47.652Z,95722.00
2022-12-04T01:14:57.603Z,95722.00
2022-12-04T01:15:07.589Z,95722.00
2022-12-04T01:15:17.590Z,95726.00
2022-12-04T01:15:27.601Z,95722.00
2022-12-04T01:15:37.589Z,95722.00
2022-12-04T01:15:47.599Z,95720.00
2022-12-04T01:15:57.623Z,95720.00
2022-12-04T01:16:07.695Z,95720.00
2022-12-04T01:16:17.788Z,95720.00
2022-12-04T01:16:27.656Z,95720.00
2022-12-04T01:16:37.632Z,95718.00
2022-12-04T01:16:47.649Z,95718.00
2022-12-04T01:16:57.635Z,95716.00
2022-12-04T01:17:07.589Z,95718.00
2022-12-04T01:17:17.592Z,95716.00
2022-12-04T01:17:27.591Z,95716.00
2022-12-04T01:17:37.589Z,95716.00
2022-12-04T01:17:47.580Z,95712.00
2022-12-04T01:17:57.591Z,95714.00
2022-12-04T01:18:07.579Z,95714.00
2022-12-04T01:18:17.591Z,95714.00
2022-12-04T01:18:27.580Z,95714.00
2022-12-04T01:18:37.579Z,95714.00
2022-12-04T01:18:47.582Z,95716.00
2022-12-04T01:18:57.701Z,95716.00
2022-12-04T01:19:07.594Z,95720.00
2022-12-04T01:19:17.581Z,95716.00
2022-12-04T01:19:27.582Z,95720.00
2022-12-04T01:19:37.592Z,95716.00
2022-12-04T01:19:47.589Z,95716.00
2022-12-04T01:19:57.931Z,95718.00
2022-12-04T01:20:07.587Z,95718.00
2022-12-04T01:20:17.576Z,95720.00
2022-12-04T01:20:27.661Z,95720.00
2022-12-04T01:20:37.585Z,95720.00
2022-12-04T01:20:47.569Z,95722.00
2022-12-04T01:20:57.571Z,95720.00
2022-12-04T01:21:07.570Z,95722.00
2022-12-04T01:21:17.582Z,95720.00
2022-12-04T01:21:27.609Z,95722.00
2022-12-04T01:21:37.574Z,95724.00
2022-12-04T01:21:47.571Z,95722.00
2022-12-04T01:21:57.571Z,95724.00
2022-12-04T01:22:07.570Z,95724.00
2022-12-04T01:22:17.570Z,95722.00
2022-12-04T01:22:28.490Z,95724.00
2022-12-04T01:22:37.574Z,95724.00
2022-12-04T01:22:47.570Z,95728.00
2022-12-04T01:22:57.570Z,95730.00
2022-12-04T01:23:07.562Z,95730.00
2022-12-04T01:23:17.562Z,95728.00
2022-12-04T01:23:27.561Z,95728.00
2022-12-04T01:23:37.729Z,95730.00
2022-12-04T01:23:47.562Z,95728.00
2022-12-04T01:23:57.562Z,95730.00
2022-12-04T01:24:07.563Z,95730.00
2022-12-04T01:24:17.562Z,95732.00
2022-12-04T01:24:27.572Z,95732.00
2022-12-04T01:24:37.563Z,95732.00
2022-12-04T01:24:47.564Z,95728.00
2022-12-04T01:24:57.562Z,95730.00
2022-12-04T01:25:07.561Z,95732.00
2022-12-04T01:25:17.561Z,95730.00
2022-12-04T01:25:27.841Z,95734.00
2022-12-04T01:25:37.553Z,95732.00
2022-12-04T01:25:47.562Z,95732.00
2022-12-04T01:25:57.554Z,95730.00
2022-12-04T01:26:07.554Z,95730.00
2022-12-04T01:26:17.553Z,95732.00
2022-12-04T01:26:27.550Z,95732.00
2022-12-04T01:26:37.593Z,95734.00
2022-12-04T01:26:47.554Z,95732.00
2022-12-04T01:26:57.554Z,95732.00
2022-12-04T01:27:07.545Z,95728.00
2022-12-04T01:27:17.554Z,95730.00
2022-12-04T01:27:27.551Z,95730.00
2022-12-04T01:27:37.542Z,95730.00
2022-12-04T01:27:47.553Z,95726.00
2022-12-04T01:27:57.542Z,95730.00
2022-12-04T01:28:07.541Z,95728.00
2022-12-04T01:28:17.542Z,95726.00
2022-12-04T01:28:27.542Z,95728.00
2022-12-04T01:28:37.543Z,95726.00
2022-12-04T01:28:47.545Z,95726.00
2022-12-04T01:28:59.493Z,95724.00
2022-12-04T01:29:07.553Z,95726.00
2022-12-04T01:29:17.556Z,95728.00
2022-12-04T01:29:27.547Z,95730.00
2022-12-04T01:29:37.544Z,95732.00
2022-12-04T01:29:49.028Z,95732.00
2022-12-04T01:29:57.638Z,95730.00
2022-12-04T01:30:07.533Z,95730.00
2022-12-04T01:30:17.532Z,95730.00
2022-12-04T01:30:27.613Z,95732.00
2022-12-04T01:30:37.634Z,95732.00
2022-12-04T01:30:47.534Z,95728.00
2022-12-04T01:30:57.543Z,95732.00
2022-12-04T01:31:07.543Z,95726.00
2022-12-04T01:31:17.567Z,95728.00
2022-12-04T01:31:27.594Z,95728.00
2022-12-04T01:31:37.660Z,95728.00
2022-12-04T01:31:47.647Z,95728.00
2022-12-04T01:31:57.606Z,95728.00
2022-12-04T01:32:07.592Z,95726.00
2022-12-04T01:32:17.616Z,95726.00
2022-12-04T01:32:27.534Z,95724.00
2022-12-04T01:32:39.474Z,95728.00
2022-12-04T01:32:47.534Z,95722.00
2022-12-04T01:32:57.537Z,95724.00
2022-12-04T01:33:07.533Z,95726.00
2022-12-04T01:33:17.532Z,95720.00
2022-12-04T01:33:27.534Z,95722.00
2022-12-04T01:33:37.525Z,95722.00
2022-12-04T01:33:47.534Z,95724.00
2022-12-04T01:33:57.525Z,95722.00
2022-12-04T01:34:07.524Z,95720.00
2022-12-04T01:34:17.525Z,95720.00
2022-12-04T01:34:27.524Z,95718.00
2022-12-04T01:34:37.519Z,95718.00
2022-12-04T01:34:47.518Z,95718.00
2022-12-04T01:34:57.514Z,95720.00
2022-12-04T01:35:07.516Z,95724.00
2022-12-04T01:35:17.528Z,95722.00
2022-12-04T01:35:27.522Z,95724.00
2022-12-04T01:35:37.519Z,95722.00
2022-12-04T01:35:47.515Z,95724.00
2022-12-04T01:35:57.535Z,95724.00
2022-12-04T01:36:07.545Z,95726.00
2022-12-04T01:36:17.558Z,95726.00
2022-12-04T01:36:27.517Z,95730.00
2022-12-04T01:36:37.515Z,95730.00
2022-12-04T01:36:47.515Z,95734.00
2022-12-04T01:36:57.575Z,95734.00
2022-12-04T01:37:07.514Z,95738.00
2022-12-04T01:37:17.514Z,95736.00
2022-12-04T01:37:27.514Z,95738.00
2022-12-04T01:37:37.514Z,95740.00
2022-12-04T01:37:47.514Z,95740.00
2022-12-04T01:37:57.515Z,95740.00
2022-12-04T01:38:07.516Z,95741.00
2022-12-04T01:38:17.515Z,95741.00
2022-12-04T01:38:27.513Z,95741.00
2022-12-04T01:38:39.445Z,95741.00
2022-12-04T01:38:47.506Z,95743.00
2022-12-04T01:38:57.506Z,95741.00
2022-12-04T01:39:07.505Z,95741.00
2022-12-04T01:39:17.505Z,95741.00
2022-12-04T01:39:27.506Z,95740.00
2022-12-04T01:39:37.504Z,95740.00
2022-12-04T01:39:47.506Z,95738.00
2022-12-04T01:39:57.680Z,95736.00
2022-12-04T01:40:07.514Z,95736.00
2022-12-04T01:40:17.511Z,95734.00
2022-12-04T01:40:28.945Z,95732.00
2022-12-04T01:40:37.506Z,95732.00
2022-12-04T01:40:47.506Z,95730.00
2022-12-04T01:40:57.505Z,95728.00
2022-12-04T01:41:07.515Z,95730.00
2022-12-04T01:41:17.497Z,95728.00
2022-12-04T01:41:27.496Z,95728.00
2022-12-04T01:41:37.496Z,95724.00
2022-12-04T01:41:47.510Z,95726.00
2022-12-04T01:41:57.497Z,95724.00
2022-12-04T01:42:07.637Z,95724.00
2022-12-04T01:42:17.510Z,95726.00
2022-12-04T01:42:27.496Z,95724.00
2022-12-04T01:42:37.496Z,95724.00
2022-12-04T01:42:47.496Z,95724.00
2022-12-04T01:42:57.497Z,95724.00
2022-12-04T01:43:07.496Z,95722.00
2022-12-04T01:43:17.499Z,95722.00
2022-12-04T01:43:27.488Z,95724.00
2022-12-04T01:43:37.489Z,95724.00
2022-12-04T01:43:47.497Z,95724.00
2022-12-04T01:43:57.497Z,95726.00
2022-12-04T01:44:07.489Z,95728.00
2022-12-04T01:44:17.489Z,95728.00
2022-12-04T01:44:27.489Z,95726.00
2022-12-04T01:44:37.488Z,95728.00
2022-12-04T01:44:47.490Z,95730.00
2022-12-04T01:44:57.498Z,95728.00
2022-12-04T01:45:07.488Z,95726.00
2022-12-04T01:45:17.489Z,95728.00
2022-12-04T01:45:27.512Z,95726.00
2022-12-04T01:45:37.525Z,95726.00
2022-12-04T01:45:47.517Z,95726.00
2022-12-04T01:45:57.556Z,95728.00
2022-12-04T01:46:07.602Z,95724.00
2022-12-04T01:46:17.542Z,95726.00
2022-12-04T01:46:27.622Z,95724.00
2022-12-04T01:46:37.490Z,95722.00
2022-12-04T01:46:47.477Z,95722.00
2022-12-04T01:46:57.482Z,95724.00
2022-12-04T01:47:07.480Z,95724.00
2022-12-04T01:47:17.533Z,95722.00
2022-12-04T01:47:27.485Z,95724.00
2022-12-04T01:47:37.468Z,95726.00
2022-12-04T01:47:47.468Z,95726.00
2022-12-04T01:47:57.477Z,95726.00
2022-12-04T01:48:07.477Z,95726.00
2022-12-04T01:48:17.468Z,95730.00
2022-12-04T01:48:27.469Z,95728.00
2022-12-04T01:48:37.489Z,95728.00
2022-12-04T01:48:47.468Z,95726.00
2022-12-04T01:48:57.468Z,95730.00
2022-12-04T01:49:07.674Z,95730.00
2022-12-04T01:49:17.468Z,95730.00
2022-12-04T01:49:27.476Z,95734.00
2022-12-04T01:49:37.473Z,95736.00
2022-12-04T01:49:47.468Z,95736.00
2022-12-04T01:49:57.710Z,95736.00
2022-12-04T01:50:07.458Z,95738.00
2022-12-04T01:50:17.470Z,95740.00
2022-12-04T01:50:27.660Z,95740.00
2022-12-04T01:50:37.469Z,95738.00
2022-12-04T01:50:47.469Z,95738.00
2022-12-04T01:50:57.468Z,95738.00
2022-12-04T01:51:07.464Z,95740.00
2022-12-04T01:51:17.458Z,95738.00
2022-12-04T01:51:27.468Z,95738.00
2022-12-04T01:51:37.461Z,95740.00
2022-12-04T01:51:47.463Z,95740.00
2022-12-04T01:51:57.461Z,95738.00
2022-12-04T01:52:07.459Z,95738.00
2022-12-04T01:52:17.450Z,95738.00
2022-12-04T01:52:27.488Z,95738.00
2022-12-04T01:52:37.459Z,95736.00
2022-12-04T01:52:47.460Z,95736.00
2022-12-04T01:52:57.469Z,95736.00
2022-12-04T01:53:07.454Z,95736.00
2022-12-04T01:53:17.459Z,95738.00
2022-12-04T01:53:27.450Z,95738.00
2022-12-04T01:53:37.452Z,95736.00
2022-12-04T01:53:47.449Z,95738.00
2022-12-04T01:53:57.458Z,95736.00
2022-12-04T01:54:07.449Z,95736.00
2022-12-04T01:54:17.460Z,95738.00
2022-12-04T01:54:27.449Z,95734.00
2022-12-04T01:54:37.449Z,95736.00
2022-12-04T01:54:47.450Z,95736.00
2022-12-04T01:54:57.450Z,95738.00
2022-12-04T01:55:07.449Z,95736.00
2022-12-04T01:55:17.451Z,95736.00
2022-12-04T01:55:27.449Z,95736.00
2022-12-04T01:55:37.455Z,95736.00
2022-12-04T01:55:47.443Z,95736.00
2022-12-04T01:55:57.440Z,95736.00
2022-12-04T01:56:07.440Z,95734.00
2022-12-04T01:56:17.440Z,95732.00
2022-12-04T01:56:27.444Z,95732.00
2022-12-04T01:56:37.441Z,95732.00
2022-12-04T01:56:47.439Z,95732.00
2022-12-04T01:56:57.443Z,95732.00
2022-12-04T01:57:07.446Z,95732.00
2022-12-04T01:57:17.440Z,95734.00
2022-12-04T01:57:27.441Z,95732.00
2022-12-04T01:57:37.483Z,95732.00